Time;durP1;ratioP1;P1;durP2;ratioP2;P2;SDS_P1;SDS_P2;PMS_P1;PMS_P2;Temp;Humidity;BMP_temperature;BMP_pressure;BME280_temperature;BME280_humidity;BME280_pressure;Samples;Min_cycle;Max_cycle;Signal;HPM_P1;HPM_P2
2021/11/10 00:00:31;;;;;;;7.28;3.70;;;7.40;91.00;;;;;;2088072;28;20045;-89
2021/11/10 00:01:32;;;;;;;7.47;3.80;;;7.40;90.80;;;;;;2094263;28;20033;-90
2021/11/10 00:02:32;;;;;;;8.20;4.30;;;7.40;90.80;;;;;;2082494;28;20033;-89
2021/11/10 00:03:33;;;;;;;7.85;3.90;;;7.40;90.80;;;;;;2088800;28;20049;-89
2021/11/10 00:04:34;;;;;;;8.43;3.80;;;7.40;90.80;;;;;;2104076;28;20046;-89
2021/11/10 00:05:34;;;;;;;6.60;3.47;;;7.40;90.80;;;;;;2108086;28;20090;-89
2021/11/10 00:06:36;;;;;;;8.00;4.10;;;7.40;90.80;;;;;;2110366;28;20026;-89
2021/11/10 00:07:36;;;;;;;7.38;4.00;;;7.30;90.80;;;;;;2099373;28;20116;-89
2021/11/10 00:08:37;;;;;;;8.82;3.78;;;7.30;90.80;;;;;;2108167;28;20028;-89
2021/11/10 00:09:38;;;;;;;7.15;3.38;;;7.30;90.80;;;;;;2106184;28;20012;-89
2021/11/10 00:10:38;;;;;;;7.53;3.42;;;7.30;91.00;;;;;;2090764;28;20025;-90
2021/11/10 00:11:39;;;;;;;7.35;3.50;;;7.30;90.80;;;;;;2090421;28;20032;-89
2021/11/10 00:12:41;;;;;;;8.20;3.65;;;7.30;90.80;;;;;;2101791;28;20102;-90
2021/11/10 00:13:41;;;;;;;6.72;3.45;;;7.30;90.80;;;;;;2105276;28;20074;-89
2021/11/10 00:14:42;;;;;;;8.48;3.58;;;7.20;90.80;;;;;;2116553;28;20440;-89
2021/11/10 00:15:48;;;;;;;6.65;3.60;;;7.20;90.80;;;;;;2099255;28;20036;-89
2021/11/10 00:16:49;;;;;;;8.00;3.72;;;7.20;90.80;;;;;;2100359;28;20040;-89
2021/11/10 00:17:49;;;;;;;7.95;3.40;;;7.20;90.90;;;;;;2106008;28;20059;-90
2021/11/10 00:18:51;;;;;;;7.03;3.47;;;7.20;90.90;;;;;;2090802;28;20092;-89
2021/11/10 00:19:52;;;;;;;7.90;3.90;;;7.20;90.90;;;;;;2103830;28;20035;-89
2021/11/10 00:20:53;;;;;;;6.72;3.38;;;7.20;90.80;;;;;;2099054;28;20111;-89
2021/11/10 00:21:53;;;;;;;7.00;3.75;;;7.20;90.90;;;;;;2105775;28;20086;-90
2021/11/10 00:22:54;;;;;;;8.02;3.83;;;7.20;90.90;;;;;;2115416;28;20085;-89
2021/11/10 00:23:55;;;;;;;8.55;3.70;;;7.10;90.80;;;;;;2107706;28;20119;-90
2021/11/10 00:24:56;;;;;;;7.70;3.83;;;7.10;90.80;;;;;;2095406;28;20078;-89
2021/11/10 00:25:57;;;;;;;8.65;3.70;;;7.10;90.80;;;;;;2090904;28;20048;-89
2021/11/10 00:26:58;;;;;;;7.55;3.80;;;7.10;90.90;;;;;;2095792;28;20395;-89
2021/11/10 00:27:59;;;;;;;7.65;3.92;;;7.10;90.90;;;;;;2105036;28;20055;-89
2021/11/10 00:28:59;;;;;;;7.18;3.40;;;7.00;90.90;;;;;;2108397;28;20032;-89
2021/11/10 00:30:00;;;;;;;9.30;4.00;;;7.00;90.90;;;;;;2110558;28;20119;-88
2021/11/10 00:31:01;;;;;;;6.85;3.75;;;7.00;90.90;;;;;;2102310;28;20036;-89
2021/11/10 00:32:01;;;;;;;8.32;3.75;;;7.00;90.90;;;;;;2118482;28;20035;-89
2021/11/10 00:33:02;;;;;;;8.77;4.43;;;7.00;90.90;;;;;;2116394;28;20027;-88
2021/11/10 00:34:03;;;;;;;9.13;4.07;;;7.00;90.90;;;;;;2118734;28;20073;-89
2021/11/10 00:35:04;;;;;;;8.50;4.05;;;6.90;90.90;;;;;;2113869;28;20055;-89
2021/11/10 00:36:05;;;;;;;8.20;3.75;;;6.90;90.90;;;;;;2118305;28;20130;-90
2021/11/10 00:37:06;;;;;;;8.07;4.20;;;6.90;90.90;;;;;;2111488;28;20024;-90
2021/11/10 00:38:06;;;;;;;8.48;4.18;;;6.90;90.90;;;;;;2093885;28;20103;-89
2021/11/10 00:39:07;;;;;;;7.55;4.13;;;6.90;90.90;;;;;;2113418;28;20017;-89
2021/11/10 00:40:08;;;;;;;7.53;3.95;;;6.90;90.90;;;;;;2125430;28;20026;-89
2021/11/10 00:41:09;;;;;;;8.15;3.80;;;6.90;90.90;;;;;;2118421;28;20015;-84
2021/11/10 00:42:10;;;;;;;7.63;4.00;;;6.90;90.90;;;;;;2117785;28;20020;-89
2021/11/10 00:43:11;;;;;;;8.70;4.07;;;6.90;90.90;;;;;;2116613;28;20051;-90
2021/11/10 00:44:11;;;;;;;5.88;3.60;;;6.90;90.90;;;;;;2115030;28;20093;-89
2021/11/10 00:45:12;;;;;;;7.10;3.72;;;6.90;91.00;;;;;;2118584;28;20052;-89
2021/11/10 00:46:13;;;;;;;7.00;4.07;;;6.90;91.00;;;;;;2118653;28;20095;-90
2021/11/10 00:47:13;;;;;;;8.23;4.05;;;6.90;91.00;;;;;;2114412;28;20068;-90
2021/11/10 00:48:14;;;;;;;6.38;3.80;;;6.90;91.30;;;;;;2090190;28;20410;-90
2021/11/10 00:49:15;;;;;;;7.63;4.30;;;6.90;91.00;;;;;;2081482;28;20492;-90
2021/11/10 00:50:15;;;;;;;9.77;4.60;;;6.90;91.00;;;;;;2107101;28;20071;-90
2021/11/10 00:51:16;;;;;;;8.68;4.20;;;6.90;91.00;;;;;;2111861;28;20019;-90
2021/11/10 00:52:17;;;;;;;8.30;3.80;;;6.90;91.00;;;;;;2099319;28;20476;-90
2021/11/10 00:53:17;;;;;;;7.15;4.05;;;6.90;91.00;;;;;;2101690;28;20091;-89
2021/11/10 00:54:18;;;;;;;6.95;3.75;;;6.90;91.00;;;;;;2093616;28;20025;-90
2021/11/10 00:55:18;;;;;;;7.97;4.07;;;6.80;91.00;;;;;;2085616;28;20022;-90
2021/11/10 00:56:19;;;;;;;7.85;3.80;;;6.80;91.00;;;;;;2105560;28;20039;-90
2021/11/10 00:57:20;;;;;;;6.13;3.55;;;6.80;91.00;;;;;;2104069;28;20066;-90
2021/11/10 00:58:21;;;;;;;8.45;4.07;;;6.80;91.00;;;;;;2096431;28;20033;-90
2021/11/10 00:59:21;;;;;;;8.00;4.18;;;6.80;91.00;;;;;;2096055;28;20055;-90
2021/11/10 01:00:23;;;;;;;8.60;4.22;;;6.80;91.10;;;;;;2102833;28;20054;-89
2021/11/10 01:01:24;;;;;;;8.23;4.40;;;6.80;91.10;;;;;;2093436;28;20131;-90
2021/11/10 01:02:25;;;;;;;7.15;4.30;;;6.80;91.10;;;;;;2098549;28;20055;-90
2021/11/10 01:03:27;;;;;;;7.68;4.10;;;6.80;91.10;;;;;;2099540;28;20032;-89
2021/11/10 01:04:28;;;;;;;8.27;3.92;;;6.80;91.10;;;;;;2094894;28;20036;-90
2021/11/10 01:05:28;;;;;;;7.68;3.65;;;6.80;91.10;;;;;;2098893;28;20558;-90
2021/11/10 01:06:33;;;;;;;7.70;4.18;;;6.80;91.40;;;;;;2106464;28;20043;-89
2021/11/10 01:07:34;;;;;;;8.40;4.82;;;6.80;91.10;;;;;;2110434;28;20035;-89
2021/11/10 01:08:35;;;;;;;9.82;4.45;;;6.70;91.10;;;;;;2115512;28;20028;-89
2021/11/10 01:09:40;;;;;;;7.32;4.43;;;6.80;91.10;;;;;;2113000;28;20718;-90
2021/11/10 01:10:41;;;;;;;8.80;4.25;;;6.70;91.10;;;;;;2115618;28;20019;-90
2021/11/10 01:11:43;;;;;;;8.52;4.30;;;6.70;91.10;;;;;;2115919;28;20120;-89
2021/11/10 01:12:44;;;;;;;7.68;4.18;;;6.70;91.10;;;;;;2098647;28;20402;-89
2021/11/10 01:13:45;;;;;;;7.68;4.05;;;6.70;91.10;;;;;;2108028;28;20031;-89
2021/11/10 01:14:45;;;;;;;8.93;4.45;;;6.70;91.10;;;;;;2113977;28;20039;-89
2021/11/10 01:15:47;;;;;;;8.50;4.47;;;6.70;91.10;;;;;;2098928;28;20048;-89
2021/11/10 01:16:48;;;;;;;8.60;4.20;;;6.70;91.10;;;;;;2102410;28;20375;-89
2021/11/10 01:17:49;;;;;;;7.18;4.20;;;6.70;91.10;;;;;;2105842;28;20058;-90
2021/11/10 01:18:50;;;;;;;6.80;4.00;;;6.70;91.20;;;;;;2115010;28;20030;-89
2021/11/10 01:19:51;;;;;;;7.93;4.03;;;6.70;91.20;;;;;;2107703;28;20394;-90
2021/11/10 01:20:51;;;;;;;8.77;4.30;;;6.70;91.20;;;;;;2102941;28;20449;-89
2021/11/10 01:21:53;;;;;;;8.35;4.25;;;6.70;91.20;;;;;;2105102;28;20449;-89
2021/11/10 01:22:54;;;;;;;9.02;4.40;;;6.70;91.20;;;;;;2112919;28;20098;-89
2021/11/10 01:23:55;;;;;;;7.47;4.45;;;6.60;91.10;;;;;;2107277;28;20016;-90
2021/11/10 01:24:56;;;;;;;6.82;4.05;;;6.70;91.20;;;;;;2108572;28;20032;-90
2021/11/10 01:25:56;;;;;;;10.75;4.53;;;6.60;91.10;;;;;;2090498;28;20017;-89
2021/11/10 01:26:57;;;;;;;8.35;4.32;;;6.60;91.10;;;;;;2101348;28;20119;-89
2021/11/10 01:27:58;;;;;;;10.38;4.50;;;6.60;91.20;;;;;;2101841;28;20472;-90
2021/11/10 01:28:59;;;;;;;9.43;4.50;;;6.60;91.40;;;;;;2089142;28;20510;-89
2021/11/10 01:30:00;;;;;;;9.27;4.03;;;6.60;91.10;;;;;;2090706;28;20017;-89
2021/11/10 01:31:00;;;;;;;10.27;4.45;;;6.60;91.20;;;;;;2107073;28;20104;-89
2021/11/10 01:32:02;;;;;;;8.43;4.35;;;6.60;91.20;;;;;;2090024;28;20032;-89
2021/11/10 01:33:02;;;;;;;9.25;4.85;;;6.60;91.20;;;;;;2090389;28;20043;-89
2021/11/10 01:34:07;;;;;;;9.88;4.85;;;6.60;91.20;;;;;;2115097;28;20469;-89
2021/11/10 01:35:08;;;;;;;7.70;4.55;;;6.60;91.20;;;;;;2082645;28;20146;-89
2021/11/10 01:36:09;;;;;;;8.82;4.70;;;6.60;91.20;;;;;;2090959;28;20140;-89
2021/11/10 01:37:09;;;;;;;8.82;4.47;;;6.60;91.20;;;;;;2109688;28;20032;-90
2021/11/10 01:38:10;;;;;;;8.65;4.50;;;6.60;91.20;;;;;;2112206;28;20541;-89
2021/11/10 01:39:12;;;;;;;7.68;4.32;;;6.50;91.10;;;;;;2110892;28;20024;-89
2021/11/10 01:40:16;;;;;;;10.25;4.47;;;6.60;91.20;;;;;;2112078;28;20083;-90
2021/11/10 01:41:16;;;;;;;8.15;4.47;;;6.50;91.20;;;;;;2112982;28;20065;-89
2021/11/10 01:42:17;;;;;;;8.63;4.45;;;6.50;91.20;;;;;;2098969;28;20033;-89
2021/11/10 01:43:18;;;;;;;8.00;4.53;;;6.50;91.20;;;;;;2099852;28;20066;-90
2021/11/10 01:44:23;;;;;;;7.13;4.30;;;6.50;91.20;;;;;;2098193;28;20149;-90
2021/11/10 01:45:23;;;;;;;8.23;4.30;;;6.50;91.20;;;;;;2107315;27;20023;-89
2021/11/10 01:46:25;;;;;;;7.25;4.60;;;6.50;91.20;;;;;;2123629;27;20027;-90
2021/11/10 01:47:26;;;;;;;7.93;4.60;;;6.50;91.20;;;;;;2110814;28;20032;-89
2021/11/10 01:48:27;;;;;;;6.75;4.50;;;6.50;91.20;;;;;;2113242;28;20440;-90
2021/11/10 01:49:28;;;;;;;10.07;4.93;;;6.50;91.20;;;;;;2111827;28;20169;-90
2021/11/10 01:50:29;;;;;;;8.55;5.07;;;6.50;91.20;;;;;;2107520;28;20057;-90
2021/11/10 01:51:29;;;;;;;11.07;5.20;;;6.50;91.20;;;;;;2106969;28;20132;-90
2021/11/10 01:52:30;;;;;;;8.07;4.78;;;6.40;91.20;;;;;;2113067;28;20027;-90
2021/11/10 01:53:31;;;;;;;8.52;5.00;;;6.50;91.20;;;;;;2115605;28;20038;-90
2021/11/10 01:54:34;;;;;;;9.20;4.97;;;6.40;91.20;;;;;;2104082;28;20418;-90
2021/11/10 01:55:36;;;;;;;8.15;4.65;;;6.50;91.20;;;;;;2107529;28;20054;-90
2021/11/10 01:56:38;;;;;;;8.32;4.45;;;6.50;91.20;;;;;;2112493;28;20090;-90
2021/11/10 01:57:40;;;;;;;8.70;4.43;;;6.50;91.20;;;;;;2112611;28;20040;-89
2021/11/10 01:58:40;;;;;;;8.40;4.47;;;6.50;91.20;;;;;;2106829;28;20051;-90
2021/11/10 01:59:42;;;;;;;8.02;4.22;;;6.50;91.20;;;;;;2111806;28;20023;-89
2021/11/10 02:00:44;;;;;;;6.78;4.40;;;6.50;91.20;;;;;;2112075;28;20135;-89
2021/11/10 02:01:46;;;;;;;8.52;4.35;;;6.50;91.20;;;;;;2114431;28;20505;-90
2021/11/10 02:02:51;;;;;;;8.07;4.63;;;6.50;91.50;;;;;;2115476;28;20138;-90
2021/11/10 02:03:51;;;;;;;8.48;4.55;;;6.50;91.20;;;;;;2098786;28;20098;-90
2021/11/10 02:04:53;;;;;;;7.70;4.50;;;6.50;91.20;;;;;;2096160;28;20471;-90
2021/11/10 02:05:53;;;;;;;8.75;4.85;;;6.40;91.20;;;;;;2103159;28;20026;-90
2021/11/10 02:06:54;;;;;;;8.40;4.35;;;6.40;91.20;;;;;;2098422;28;20029;-90
2021/11/10 02:07:55;;;;;;;7.93;4.20;;;6.40;91.20;;;;;;2114177;28;20032;-90
2021/11/10 02:08:56;;;;;;;7.70;4.22;;;6.40;91.30;;;;;;2104024;28;20521;-89
2021/11/10 02:09:57;;;;;;;7.18;4.20;;;6.40;91.30;;;;;;2097546;28;20017;-90
2021/11/10 02:10:57;;;;;;;7.68;4.40;;;6.40;91.30;;;;;;2097892;28;20036;-90
2021/11/10 02:12:00;;;;;;;6.75;4.30;;;6.40;91.30;;;;;;2090090;28;20028;-90
2021/11/10 02:13:00;;;;;;;7.97;4.38;;;6.40;91.60;;;;;;2093866;28;20033;-90
2021/11/10 02:14:02;;;;;;;6.43;3.75;;;6.40;91.30;;;;;;2085187;28;20026;-90
2021/11/10 02:15:05;;;;;;;8.13;4.20;;;6.40;91.30;;;;;;2097923;28;20035;-90
2021/11/10 02:16:06;;;;;;;9.77;4.45;;;6.40;91.30;;;;;;2109022;28;20038;-90
2021/11/10 02:17:12;;;;;;;8.02;4.40;;;6.40;91.40;;;;;;2112136;28;20122;-90
2021/11/10 02:18:13;;;;;;;7.55;4.28;;;6.30;91.30;;;;;;2112632;28;20036;-85
2021/11/10 02:19:15;;;;;;;7.45;4.35;;;6.30;91.30;;;;;;2115259;28;20075;-90
2021/11/10 02:20:17;;;;;;;7.13;4.07;;;6.40;91.40;;;;;;2109735;28;20040;-86
2021/11/10 02:21:18;;;;;;;9.05;4.22;;;6.30;91.40;;;;;;2117360;28;20007;-81
2021/11/10 02:22:21;;;;;;;9.38;4.32;;;6.30;91.40;;;;;;2110365;28;20021;-89
2021/11/10 02:23:21;;;;;;;8.27;4.40;;;6.30;91.40;;;;;;2108516;28;20013;-85
2021/11/10 02:24:26;;;;;;;10.00;4.57;;;6.30;91.40;;;;;;2093529;28;20045;-89
2021/11/10 02:25:28;;;;;;;6.32;4.25;;;6.30;91.40;;;;;;2105735;28;20013;-90
2021/11/10 02:26:29;;;;;;;6.90;3.90;;;6.30;91.70;;;;;;2090593;28;20037;-90
2021/11/10 02:27:36;;;;;;;7.28;4.40;;;6.30;91.50;;;;;;2081227;28;20036;-90
2021/11/10 02:28:38;;;;;;;7.80;4.05;;;6.20;91.50;;;;;;2090087;28;20075;-90
2021/11/10 02:29:39;;;;;;;10.38;4.28;;;6.20;91.40;;;;;;2099125;28;20030;-90
2021/11/10 02:30:39;;;;;;;7.07;4.28;;;6.20;91.40;;;;;;2100159;28;20556;-90
2021/11/10 02:31:40;;;;;;;7.03;3.97;;;6.20;91.40;;;;;;2106143;28;20017;-90
2021/11/10 02:32:50;;;;;;;9.77;4.05;;;6.20;91.50;;;;;;2108402;28;20426;-90
2021/11/10 02:33:51;;;;;;;8.40;4.50;;;6.20;91.50;;;;;;2106639;28;20020;-90
2021/11/10 02:34:51;;;;;;;8.95;4.30;;;6.20;91.50;;;;;;2104383;28;20848;-90
2021/11/10 02:36:05;;;;;;;7.28;4.25;;;6.20;91.50;;;;;;2089866;28;20087;-89
2021/11/10 02:37:06;;;;;;;6.93;3.83;;;6.20;91.50;;;;;;2099570;28;20073;-90
2021/11/10 02:38:09;;;;;;;6.82;4.13;;;6.20;91.50;;;;;;2111750;28;20039;-90
2021/11/10 02:39:19;;;;;;;7.20;4.30;;;6.20;91.50;;;;;;2114797;28;20034;-91
2021/11/10 02:40:21;;;;;;;8.13;4.20;;;6.20;91.50;;;;;;2114845;28;20325;-89
2021/11/10 02:41:22;;;;;;;7.72;3.90;;;6.20;91.50;;;;;;2116137;28;20068;-90
2021/11/10 02:42:23;;;;;;;7.80;4.28;;;6.20;91.50;;;;;;2098221;28;20033;-91
2021/11/10 02:43:25;;;;;;;8.18;4.20;;;6.20;91.50;;;;;;2098178;28;20028;-90
2021/11/10 02:44:25;;;;;;;8.70;4.55;;;6.20;91.50;;;;;;2106418;28;20027;-90
2021/11/10 02:45:28;;;;;;;9.30;4.47;;;6.20;91.50;;;;;;2104754;28;20482;-90
2021/11/10 02:46:29;;;;;;;8.20;4.50;;;6.20;91.50;;;;;;2091182;28;20024;-89
2021/11/10 02:47:30;;;;;;;8.25;4.18;;;6.20;91.50;;;;;;2097530;28;20033;-90
2021/11/10 02:48:30;;;;;;;8.07;4.07;;;6.20;91.50;;;;;;2106690;28;20060;-90
2021/11/10 02:49:31;;;;;;;8.05;4.25;;;6.20;91.50;;;;;;2098168;28;20051;-90
2021/11/10 02:50:32;;;;;;;8.82;4.03;;;6.20;91.50;;;;;;2097693;28;20021;-90
2021/11/10 02:51:33;;;;;;;7.70;4.43;;;6.10;91.50;;;;;;2088780;28;20412;-91
2021/11/10 02:52:33;;;;;;;8.98;4.60;;;6.10;91.50;;;;;;2081596;28;20036;-91
2021/11/10 02:53:34;;;;;;;6.90;3.97;;;6.10;91.50;;;;;;2090018;28;20061;-90
2021/11/10 02:54:40;;;;;;;8.13;4.43;;;6.10;91.50;;;;;;2109525;28;20057;-90
2021/11/10 02:55:41;;;;;;;8.20;4.47;;;6.10;91.50;;;;;;2110618;28;20024;-90
2021/11/10 02:56:41;;;;;;;8.18;4.60;;;6.10;91.50;;;;;;2106613;28;20020;-90
2021/11/10 02:57:42;;;;;;;6.75;4.30;;;6.10;91.50;;;;;;2104622;28;20474;-90
2021/11/10 02:58:43;;;;;;;8.68;4.40;;;6.10;91.50;;;;;;2088903;28;20041;-91
2021/11/10 02:59:44;;;;;;;8.85;4.72;;;6.10;91.50;;;;;;2097662;28;20025;-91
2021/11/10 03:00:44;;;;;;;9.57;5.03;;;6.10;91.50;;;;;;2089557;28;20084;-90
2021/11/10 03:01:46;;;;;;;8.20;5.07;;;6.10;91.50;;;;;;2089869;28;20025;-91
2021/11/10 03:02:50;;;;;;;8.30;4.47;;;6.00;91.40;;;;;;2114618;28;20059;-91
2021/11/10 03:03:50;;;;;;;9.73;4.78;;;6.00;91.40;;;;;;2114339;28;20024;-90
2021/11/10 03:04:51;;;;;;;8.98;4.32;;;6.00;91.40;;;;;;2114016;28;20032;-90
2021/11/10 03:05:52;;;;;;;7.22;4.50;;;6.00;91.50;;;;;;2101554;28;20045;-90
2021/11/10 03:06:54;;;;;;;9.18;4.70;;;6.00;91.50;;;;;;2089239;28;20029;-90
2021/11/10 03:07:55;;;;;;;9.25;4.70;;;6.00;91.50;;;;;;2092615;28;20075;-90
2021/11/10 03:08:56;;;;;;;9.75;4.75;;;6.00;91.50;;;;;;2114840;28;20502;-90
2021/11/10 03:09:56;;;;;;;8.52;4.50;;;6.00;91.50;;;;;;2099334;28;20020;-90
2021/11/10 03:10:57;;;;;;;6.95;4.18;;;5.90;91.50;;;;;;2106236;28;20160;-90
2021/11/10 03:11:59;;;;;;;8.80;4.30;;;6.00;91.50;;;;;;2106470;28;20493;-90
2021/11/10 03:13:00;;;;;;;9.05;4.90;;;5.90;91.60;;;;;;2106490;28;20036;-91
2021/11/10 03:14:01;;;;;;;7.28;4.50;;;5.90;91.60;;;;;;2114821;28;20120;-90
2021/11/10 03:15:02;;;;;;;8.70;4.90;;;5.90;91.60;;;;;;2102962;28;20115;-90
2021/11/10 03:16:03;;;;;;;8.35;4.68;;;5.90;91.60;;;;;;2106042;28;20107;-91
2021/11/10 03:17:07;;;;;;;7.55;4.70;;;5.90;91.60;;;;;;2106343;28;20043;-90
2021/11/10 03:18:08;;;;;;;9.80;4.82;;;5.90;91.60;;;;;;2097106;28;20074;-90
2021/11/10 03:19:09;;;;;;;7.72;4.50;;;5.90;91.60;;;;;;2106340;28;20024;-89
2021/11/10 03:20:10;;;;;;;7.93;4.78;;;5.90;91.60;;;;;;2105341;28;20054;-90
2021/11/10 03:21:11;;;;;;;8.45;4.30;;;5.90;91.60;;;;;;2099170;28;20087;-90
2021/11/10 03:22:14;;;;;;;7.47;4.60;;;5.90;91.60;;;;;;2089758;28;20021;-90
2021/11/10 03:23:14;;;;;;;7.30;4.07;;;5.90;91.60;;;;;;2099066;28;20083;-90
2021/11/10 03:24:16;;;;;;;8.32;4.18;;;5.90;91.60;;;;;;2106984;28;20024;-90
2021/11/10 03:25:16;;;;;;;8.00;3.70;;;5.90;91.60;;;;;;2104770;28;20088;-89
2021/11/10 03:26:20;;;;;;;8.68;4.38;;;5.90;91.60;;;;;;2117792;28;20028;-89
2021/11/10 03:27:21;;;;;;;8.35;4.13;;;5.90;91.60;;;;;;2099694;28;20016;-90
2021/11/10 03:28:21;;;;;;;7.93;4.40;;;5.90;91.70;;;;;;2106199;28;20115;-90
2021/11/10 03:29:22;;;;;;;8.43;4.47;;;5.90;91.90;;;;;;2097342;28;20021;-90
2021/11/10 03:30:23;;;;;;;8.32;4.20;;;5.80;91.60;;;;;;2094398;28;20479;-90
2021/11/10 03:31:24;;;;;;;7.90;4.15;;;5.80;91.60;;;;;;2101412;28;20494;-90
2021/11/10 03:32:25;;;;;;;9.57;4.65;;;5.80;91.60;;;;;;2114249;28;20027;-89
2021/11/10 03:33:25;;;;;;;6.95;4.10;;;5.80;91.60;;;;;;2096610;28;20169;-90
2021/11/10 03:34:26;;;;;;;7.70;4.65;;;5.90;91.60;;;;;;2089765;28;20098;-89
2021/11/10 03:35:27;;;;;;;8.02;4.10;;;5.90;91.70;;;;;;2099713;28;20035;-90
2021/11/10 03:36:28;;;;;;;8.23;4.25;;;5.80;91.60;;;;;;2105249;28;20032;-91
2021/11/10 03:37:28;;;;;;;8.38;4.32;;;5.90;91.70;;;;;;2100001;28;20074;-91
2021/11/10 03:38:29;;;;;;;8.73;4.97;;;5.90;91.70;;;;;;2105134;28;20040;-89
2021/11/10 03:39:30;;;;;;;7.95;4.57;;;5.90;91.70;;;;;;2095899;28;20029;-90
2021/11/10 03:40:30;;;;;;;8.05;4.15;;;5.90;91.70;;;;;;2089953;28;20032;-90
2021/11/10 03:41:31;;;;;;;7.63;4.28;;;5.80;91.60;;;;;;2092934;28;20055;-90
2021/11/10 03:42:32;;;;;;;7.30;4.43;;;5.90;91.60;;;;;;2098111;28;20024;-90
2021/11/10 03:43:32;;;;;;;6.97;3.92;;;5.80;91.90;;;;;;2091069;28;20065;-90
2021/11/10 03:44:34;;;;;;;6.68;4.40;;;5.80;91.60;;;;;;2096670;28;20024;-90
2021/11/10 03:45:34;;;;;;;8.20;4.72;;;5.90;91.60;;;;;;2091494;28;20025;-89
2021/11/10 03:46:37;;;;;;;8.85;4.28;;;5.90;91.60;;;;;;2092122;28;20033;-90
2021/11/10 03:47:38;;;;;;;9.00;4.63;;;5.80;91.60;;;;;;2094851;28;20363;-90
2021/11/10 03:48:40;;;;;;;7.65;4.50;;;5.80;91.60;;;;;;2113093;28;20460;-90
2021/11/10 03:49:41;;;;;;;7.22;4.45;;;5.80;91.60;;;;;;2098718;28;20155;-90
2021/11/10 03:50:43;;;;;;;7.07;4.18;;;5.80;91.60;;;;;;2091536;28;20033;-90
2021/11/10 03:51:44;;;;;;;9.55;4.63;;;5.80;91.60;;;;;;2087795;28;20144;-90
2021/11/10 03:52:45;;;;;;;8.40;4.22;;;5.80;91.60;;;;;;2090179;28;20055;-90
2021/11/10 03:53:48;;;;;;;8.43;4.63;;;5.80;91.70;;;;;;2099522;28;20033;-90
2021/11/10 03:54:48;;;;;;;8.35;4.20;;;5.80;91.60;;;;;;2096768;28;20467;-90
2021/11/10 03:55:49;;;;;;;8.38;3.97;;;5.70;91.60;;;;;;2100405;28;20033;-89
2021/11/10 03:56:50;;;;;;;8.43;4.25;;;5.70;91.60;;;;;;2099951;28;20108;-90
2021/11/10 03:57:51;;;;;;;7.35;4.13;;;5.80;91.70;;;;;;2126327;27;20046;-90
2021/11/10 03:58:51;;;;;;;7.28;4.05;;;5.70;91.60;;;;;;2105764;28;20029;-90
2021/11/10 03:59:52;;;;;;;7.45;4.50;;;5.70;91.70;;;;;;2105320;28;20028;-90
2021/11/10 04:00:53;;;;;;;8.88;4.50;;;5.70;91.60;;;;;;2105919;28;20100;-90
2021/11/10 04:01:53;;;;;;;6.70;4.05;;;5.80;91.70;;;;;;2098554;28;20069;-90
2021/11/10 04:02:54;;;;;;;8.60;4.72;;;5.70;91.60;;;;;;2113520;28;20024;-84
2021/11/10 04:03:54;;;;;;;7.45;4.63;;;5.70;91.60;;;;;;2118182;28;20032;-84
2021/11/10 04:04:55;;;;;;;8.85;5.20;;;5.70;91.60;;;;;;2089898;28;20074;-89
2021/11/10 04:05:56;;;;;;;7.97;5.00;;;5.70;91.60;;;;;;2103019;28;20025;-81
2021/11/10 04:06:57;;;;;;;8.00;4.70;;;5.70;91.60;;;;;;2100873;28;20012;-79
2021/11/10 04:07:58;;;;;;;8.07;4.70;;;5.70;91.60;;;;;;2098326;28;20013;-81
2021/11/10 04:08:59;;;;;;;9.15;4.82;;;5.60;91.60;;;;;;2092419;28;20032;-90
2021/11/10 04:09:59;;;;;;;9.68;4.97;;;5.60;91.70;;;;;;2105411;28;20032;-90
2021/11/10 04:11:01;;;;;;;8.23;4.90;;;5.60;91.70;;;;;;2101709;28;20033;-90
2021/11/10 04:12:02;;;;;;;10.80;4.95;;;5.60;91.70;;;;;;2105532;27;20028;-90
2021/11/10 04:13:04;;;;;;;7.10;4.68;;;5.60;91.70;;;;;;2117091;28;20098;-90
2021/11/10 04:14:05;;;;;;;7.72;4.13;;;5.60;91.70;;;;;;2107717;28;20101;-89
2021/11/10 04:15:06;;;;;;;7.97;4.57;;;5.60;91.70;;;;;;2108159;28;20417;-90
2021/11/10 04:16:07;;;;;;;8.27;4.40;;;5.60;91.70;;;;;;2101471;28;20123;-90
2021/11/10 04:17:09;;;;;;;7.22;4.15;;;5.60;91.70;;;;;;2109370;28;20053;-90
2021/11/10 04:18:10;;;;;;;8.30;4.90;;;5.60;91.80;;;;;;2111917;28;20031;-90
2021/11/10 04:19:11;;;;;;;7.35;4.28;;;5.60;91.80;;;;;;2108196;28;20493;-91
2021/11/10 04:20:11;;;;;;;9.48;4.53;;;5.60;91.80;;;;;;2116387;28;20016;-90
2021/11/10 04:21:12;;;;;;;8.25;4.65;;;5.60;91.80;;;;;;2115503;28;20059;-89
2021/11/10 04:22:13;;;;;;;8.80;4.60;;;5.60;91.70;;;;;;2106747;28;20039;-90
2021/11/10 04:23:14;;;;;;;6.60;4.30;;;5.50;91.70;;;;;;2116029;28;20478;-90
2021/11/10 04:24:14;;;;;;;6.63;4.28;;;5.60;91.70;;;;;;2113874;28;20019;-90
2021/11/10 04:25:15;;;;;;;7.97;4.43;;;5.60;91.70;;;;;;2098763;28;20035;-91
2021/11/10 04:26:17;;;;;;;9.25;4.55;;;5.60;91.70;;;;;;2090534;28;20052;-90
2021/11/10 04:27:19;;;;;;;7.07;4.72;;;5.60;91.70;;;;;;2096546;28;20044;-90
2021/11/10 04:28:19;;;;;;;7.50;4.10;;;5.60;91.70;;;;;;2110029;28;20028;-91
2021/11/10 04:29:20;;;;;;;7.95;4.28;;;5.60;91.70;;;;;;2106270;28;20394;-90
2021/11/10 04:30:21;;;;;;;8.07;4.45;;;5.60;91.70;;;;;;2090710;28;20853;-91
2021/11/10 04:31:23;;;;;;;7.53;4.53;;;5.50;91.70;;;;;;2107059;28;20025;-90
2021/11/10 04:32:24;;;;;;;7.97;4.50;;;5.50;91.70;;;;;;2116193;28;20091;-89
2021/11/10 04:33:24;;;;;;;7.68;4.35;;;5.50;91.70;;;;;;2109240;28;20504;-89
2021/11/10 04:34:25;;;;;;;7.85;4.40;;;5.50;91.70;;;;;;2110856;28;20028;-90
2021/11/10 04:35:25;;;;;;;6.60;3.85;;;5.50;91.70;;;;;;2114789;28;20390;-91
2021/11/10 04:36:31;;;;;;;7.95;4.63;;;5.50;91.70;;;;;;2112696;28;20531;-91
2021/11/10 04:37:32;;;;;;;7.47;4.15;;;5.50;91.70;;;;;;2107412;28;20065;-90
2021/11/10 04:38:32;;;;;;;7.22;4.15;;;5.50;91.70;;;;;;2099391;28;20040;-90
2021/11/10 04:39:33;;;;;;;8.07;4.22;;;5.50;91.70;;;;;;2106535;28;20024;-91
2021/11/10 04:40:34;;;;;;;8.85;4.78;;;5.40;91.70;;;;;;2090717;28;20548;-91
2021/11/10 04:41:34;;;;;;;8.05;4.63;;;5.40;91.70;;;;;;2099012;28;20047;-91
2021/11/10 04:42:36;;;;;;;9.45;5.05;;;5.40;91.80;;;;;;2107688;28;20020;-90
2021/11/10 04:43:38;;;;;;;6.45;4.13;;;5.40;91.80;;;;;;2099365;28;20029;-90
2021/11/10 04:44:38;;;;;;;6.72;4.13;;;5.40;91.90;;;;;;2089478;28;20029;-90
2021/11/10 04:45:39;;;;;;;7.75;4.25;;;5.40;91.90;;;;;;2097467;28;20502;-90
2021/11/10 04:46:40;;;;;;;10.05;4.78;;;5.40;91.90;;;;;;2089786;28;20036;-90
2021/11/10 04:47:41;;;;;;;8.43;4.53;;;5.40;91.90;;;;;;2099112;28;20028;-90
2021/11/10 04:48:42;;;;;;;7.25;4.13;;;5.40;91.90;;;;;;2107525;28;20039;-90
2021/11/10 04:49:42;;;;;;;7.60;4.40;;;5.40;92.10;;;;;;2107235;28;20109;-91
2021/11/10 04:50:45;;;;;;;7.50;4.40;;;5.40;91.90;;;;;;2115019;28;20459;-91
2021/11/10 04:51:46;;;;;;;8.38;4.70;;;5.40;91.90;;;;;;2107051;28;20032;-90
2021/11/10 04:52:47;;;;;;;7.55;4.45;;;5.40;91.90;;;;;;2106556;28;20086;-90
2021/11/10 04:53:48;;;;;;;7.43;4.30;;;5.30;91.90;;;;;;2091278;28;20053;-90
2021/11/10 04:54:50;;;;;;;7.13;4.50;;;5.30;91.90;;;;;;2098560;28;20070;-90
2021/11/10 04:55:51;;;;;;;7.95;4.60;;;5.40;91.90;;;;;;2099847;28;20060;-91
2021/11/10 04:56:51;;;;;;;8.50;4.80;;;5.30;91.90;;;;;;2099381;28;20036;-90
2021/11/10 04:57:52;;;;;;;7.13;4.10;;;5.30;91.90;;;;;;2091036;28;20029;-91
2021/11/10 04:58:53;;;;;;;9.13;4.40;;;5.30;91.90;;;;;;2074891;28;20094;-90
2021/11/10 04:59:54;;;;;;;9.32;5.00;;;5.30;91.90;;;;;;2092116;28;20491;-90
2021/11/10 05:00:54;;;;;;;7.43;4.45;;;5.40;92.00;;;;;;2114281;28;20023;-90
2021/11/10 05:03:05;;;;;;;9.02;4.70;;;5.30;91.90;;;;;;2107286;28;20047;-90
2021/11/10 05:04:06;;;;;;;7.45;4.63;;;5.30;91.90;;;;;;2115431;28;20024;-90
2021/11/10 05:05:07;;;;;;;6.78;4.47;;;5.30;91.90;;;;;;2101954;28;20025;-90
2021/11/10 05:06:08;;;;;;;7.78;4.35;;;5.30;91.90;;;;;;2099323;28;20111;-90
2021/11/10 05:07:13;;;;;;;9.60;4.63;;;5.30;91.90;;;;;;2111980;28;20032;-90
2021/11/10 05:08:14;;;;;;;9.10;4.38;;;5.30;91.90;;;;;;2112495;28;20027;-90
2021/11/10 05:09:14;;;;;;;8.52;4.43;;;5.30;91.90;;;;;;2106406;28;20031;-89
2021/11/10 05:10:16;;;;;;;8.60;5.03;;;5.30;91.90;;;;;;2114694;28;20056;-90
2021/11/10 05:11:17;;;;;;;8.20;4.68;;;5.30;91.90;;;;;;2106619;28;20022;-90
2021/11/10 05:12:18;;;;;;;7.70;4.72;;;5.30;91.90;;;;;;2108330;28;20042;-90
2021/11/10 05:13:19;;;;;;;8.10;4.80;;;5.30;91.90;;;;;;2115004;28;20020;-90
2021/11/10 05:14:20;;;;;;;6.80;4.30;;;5.30;91.90;;;;;;2104492;28;20553;-90
2021/11/10 05:15:21;;;;;;;7.25;4.07;;;5.30;91.90;;;;;;2098952;28;20044;-90
2021/11/10 05:16:21;;;;;;;7.95;4.80;;;5.30;91.90;;;;;;2090513;28;20029;-90
2021/11/10 05:17:24;;;;;;;8.65;4.32;;;5.30;91.90;;;;;;2089926;28;20507;-90
2021/11/10 05:18:24;;;;;;;8.75;4.70;;;5.30;91.90;;;;;;2098187;28;20530;-90
2021/11/10 05:19:25;;;;;;;7.80;4.60;;;5.30;91.90;;;;;;2096938;28;20124;-90
2021/11/10 05:20:26;;;;;;;8.00;4.45;;;5.30;91.90;;;;;;2096298;28;20059;-90
2021/11/10 05:21:27;;;;;;;6.88;4.15;;;5.30;91.90;;;;;;2107207;28;20016;-90
2021/11/10 05:22:27;;;;;;;7.65;4.30;;;5.30;91.90;;;;;;2097255;28;20076;-89
2021/11/10 05:23:28;;;;;;;7.72;4.38;;;5.30;91.90;;;;;;2106210;28;20020;-90
2021/11/10 05:24:29;;;;;;;8.13;4.45;;;5.30;91.90;;;;;;2103467;28;20508;-90